createdAt,value
2022-11-29T00:01:35.458Z,7.32
2022-11-29T00:04:03.458Z,7.30
2022-11-29T00:06:33.590Z,7.30
2022-11-29T00:09:06.451Z,7.30
2022-11-29T00:11:56.063Z,7.30
2022-11-29T00:14:24.511Z,7.30
2022-11-29T00:16:57.222Z,7.30
2022-11-29T00:19:23.865Z,7.30
2022-11-29T00:21:50.876Z,7.30
2022-11-29T00:24:17.886Z,7.30
2022-11-29T00:26:44.666Z,7.30
2022-11-29T00:29:12.954Z,7.30
2022-11-29T00:31:40.546Z,7.30
2022-11-29T00:34:08.052Z,7.28
2022-11-29T00:36:35.721Z,7.30
2022-11-29T00:39:05.047Z,7.30
2022-11-29T00:41:32.647Z,7.30
2022-11-29T00:43:59.383Z,7.30
2022-11-29T00:46:26.093Z,7.30
2022-11-29T00:48:52.719Z,7.30
2022-11-29T00:51:19.381Z,7.30
2022-11-29T00:53:45.998Z,7.40
2022-11-29T00:56:12.837Z,7.40
2022-11-29T00:58:39.587Z,7.40
2022-11-29T01:01:06.368Z,7.40
2022-11-29T01:03:33.110Z,7.40
2022-11-29T01:06:06.951Z,7.40
2022-11-29T01:08:34.003Z,7.40
2022-11-29T01:11:35.683Z,7.38
2022-11-29T01:14:04.051Z,7.40
2022-11-29T01:16:31.642Z,7.38
2022-11-29T01:18:58.438Z,7.40
2022-11-29T01:21:25.131Z,7.40
2022-11-29T01:23:53.709Z,7.40
2022-11-29T01:26:28.729Z,7.40
2022-11-29T01:28:57.370Z,7.40
2022-11-29T01:31:32.968Z,7.40
2022-11-29T01:34:02.638Z,7.40
2022-11-29T01:36:30.542Z,7.40
2022-11-29T01:39:00.634Z,7.40
2022-11-29T01:41:31.130Z,7.40
2022-11-29T01:44:20.732Z,7.40
2022-11-29T01:46:48.306Z,7.40
2022-11-29T01:49:27.341Z,7.40
2022-11-29T01:52:21.568Z,7.40
2022-11-29T01:54:54.335Z,7.40
2022-11-29T01:57:22.023Z,7.44
2022-11-29T01:59:55.044Z,7.44
2022-11-29T02:02:37.174Z,7.50
2022-11-29T02:05:05.360Z,7.50
2022-11-29T02:07:32.178Z,7.50
2022-11-29T02:09:58.987Z,7.50
2022-11-29T02:12:53.405Z,7.50
2022-11-29T02:15:46.773Z,7.50
2022-11-29T02:19:12.350Z,7.50
2022-11-29T02:22:13.636Z,7.50
2022-11-29T02:25:24.547Z,7.50
2022-11-29T02:28:26.096Z,7.50
2022-11-29T02:31:30.030Z,7.50
2022-11-29T02:34:16.585Z,7.50
2022-11-29T02:37:28.517Z,7.50
2022-11-29T02:40:23.002Z,7.50
2022-11-29T02:43:22.675Z,7.50
2022-11-29T02:46:13.808Z,7.50
2022-11-29T02:48:58.274Z,7.50
2022-11-29T02:52:10.464Z,7.50
2022-11-29T02:54:55.441Z,7.50
2022-11-29T02:57:30.682Z,7.50
2022-11-29T03:00:34.891Z,7.50
2022-11-29T03:03:21.780Z,7.50
2022-11-29T03:06:09.002Z,7.50
2022-11-29T03:08:49.921Z,7.54
2022-11-29T03:11:19.852Z,7.50
2022-11-29T03:14:17.258Z,7.50
2022-11-29T03:17:03.153Z,7.50
2022-11-29T03:20:07.392Z,7.50
2022-11-29T03:23:26.164Z,7.50
2022-11-29T03:26:05.341Z,7.54
2022-11-29T03:28:55.386Z,7.50
2022-11-29T03:31:37.817Z,7.50
2022-11-29T03:34:47.721Z,7.56
2022-11-29T03:37:26.177Z,7.52
2022-11-29T03:40:13.644Z,7.56
2022-11-29T03:43:04.445Z,7.52
2022-11-29T03:45:39.101Z,7.54
2022-11-29T03:48:21.129Z,7.56
2022-11-29T03:50:57.118Z,7.60
2022-11-29T03:53:48.413Z,7.60
2022-11-29T03:56:38.097Z,7.60
2022-11-29T03:59:25.612Z,7.58
2022-11-29T04:02:09.933Z,7.60
2022-11-29T04:05:12.929Z,7.56
2022-11-29T04:07:54.703Z,7.50
2022-11-29T04:11:04.710Z,7.50
2022-11-29T04:13:47.072Z,7.50
2022-11-29T04:16:41.934Z,7.50
2022-11-29T04:20:01.076Z,7.50
2022-11-29T04:22:39.803Z,7.50
2022-11-29T04:25:46.882Z,7.50
2022-11-29T04:28:54.664Z,7.40
2022-11-29T04:31:41.093Z,7.40
2022-11-29T04:34:36.021Z,7.40
2022-11-29T04:37:40.258Z,7.40
2022-11-29T04:40:57.073Z,7.40
2022-11-29T04:44:36.761Z,7.34
2022-11-29T04:47:29.804Z,7.30
2022-11-29T04:50:30.433Z,7.30
2022-11-29T04:53:21.356Z,7.30
2022-11-29T04:56:18.670Z,7.30
2022-11-29T04:59:12.895Z,7.30
2022-11-29T05:02:17.660Z,7.22
2022-11-29T05:05:24.793Z,7.20
2022-11-29T05:08:19.707Z,7.20
2022-11-29T05:10:56.319Z,7.20
2022-11-29T05:13:59.122Z,7.20
2022-11-29T05:16:49.240Z,7.20
2022-11-29T05:19:53.700Z,7.20
2022-11-29T05:22:31.225Z,7.20
2022-11-29T05:25:31.560Z,7.20
2022-11-29T05:28:37.888Z,7.20
2022-11-29T05:31:50.282Z,7.20
2022-11-29T05:34:44.833Z,7.20
2022-11-29T05:37:32.807Z,7.20
2022-11-29T05:41:04.010Z,7.20
2022-11-29T05:44:09.382Z,7.20
2022-11-29T05:47:10.267Z,7.10
2022-11-29T05:50:24.947Z,7.10
2022-11-29T05:53:12.005Z,7.10
2022-11-29T05:56:01.826Z,7.10
2022-11-29T05:58:41.103Z,7.10
2022-11-29T06:01:22.081Z,7.10
2022-11-29T06:04:19.326Z,7.10
2022-11-29T06:07:05.796Z,7.10
2022-11-29T06:09:40.909Z,7.10
2022-11-29T06:12:20.986Z,7.10
2022-11-29T06:15:17.261Z,7.10
2022-11-29T06:18:03.194Z,7.10
2022-11-29T06:20:43.012Z,7.10
2022-11-29T06:23:23.255Z,7.10
2022-11-29T06:26:44.999Z,7.10
2022-11-29T06:29:33.432Z,7.10
2022-11-29T06:32:19.466Z,7.10
2022-11-29T06:35:01.325Z,7.00
2022-11-29T06:37:38.726Z,7.00
2022-11-29T06:40:10.559Z,7.00
2022-11-29T06:42:37.193Z,7.00
2022-11-29T06:45:05.039Z,7.04
2022-11-29T06:47:53.163Z,7.08
2022-11-29T06:51:03.949Z,7.10
2022-11-29T06:53:57.977Z,7.10
2022-11-29T06:56:56.042Z,7.10
2022-11-29T06:59:37.898Z,7.10
2022-11-29T07:02:38.962Z,7.20
2022-11-29T07:05:30.310Z,7.20
2022-11-29T07:08:03.762Z,7.20
2022-11-29T07:10:34.143Z,7.20
2022-11-29T07:13:01.237Z,7.20
2022-11-29T07:15:28.681Z,7.20
2022-11-29T07:18:01.361Z,7.20
2022-11-29T07:20:39.741Z,7.20
2022-11-29T07:23:12.461Z,7.20
2022-11-29T07:26:17.307Z,7.20
2022-11-29T07:29:08.754Z,7.20
2022-11-29T07:32:26.366Z,7.20
2022-11-29T07:35:25.119Z,7.20
2022-11-29T07:38:06.999Z,7.20
2022-11-29T07:40:39.558Z,7.20
2022-11-29T07:43:27.584Z,7.20
2022-11-29T07:45:56.306Z,7.24
2022-11-29T07:48:23.205Z,7.30
2022-11-29T07:50:49.905Z,7.30
2022-11-29T07:53:20.140Z,7.30
2022-11-29T07:55:48.438Z,7.30
2022-11-29T07:58:17.654Z,7.30
2022-11-29T08:00:45.279Z,7.30
2022-11-29T08:03:12.825Z,7.30
2022-11-29T08:05:40.811Z,7.30
2022-11-29T08:08:07.876Z,7.30
2022-11-29T08:10:35.490Z,7.30
2022-11-29T08:13:02.258Z,7.30
2022-11-29T08:15:29.073Z,7.30
2022-11-29T08:17:56.113Z,7.30
2022-11-29T08:20:23.104Z,7.30
2022-11-29T08:23:00.320Z,7.20
2022-11-29T08:25:28.255Z,7.20
2022-11-29T08:27:56.338Z,7.20
2022-11-29T08:30:23.427Z,7.20
2022-11-29T08:32:51.987Z,7.24
2022-11-29T08:35:21.820Z,7.30
2022-11-29T08:37:48.605Z,7.30
2022-11-29T08:40:16.445Z,7.30
2022-11-29T08:42:43.305Z,7.40
2022-11-29T08:45:12.051Z,7.40
2022-11-29T08:47:41.039Z,7.40
2022-11-29T08:50:15.542Z,7.48
2022-11-29T08:53:05.445Z,7.50
2022-11-29T08:55:43.049Z,7.50
2022-11-29T08:58:13.808Z,7.50
2022-11-29T09:00:43.846Z,7.50
2022-11-29T09:03:29.217Z,7.50
2022-11-29T09:05:57.638Z,7.50
2022-11-29T09:08:24.313Z,7.50
2022-11-29T09:10:50.963Z,7.50
2022-11-29T09:13:18.222Z,7.50
2022-11-29T09:15:45.114Z,7.54
2022-11-29T09:18:11.801Z,7.60
2022-11-29T09:20:38.504Z,7.60
2022-11-29T09:23:05.160Z,7.60
2022-11-29T09:25:31.950Z,7.60
2022-11-29T09:28:01.854Z,7.60
2022-11-29T09:30:31.494Z,7.60
2022-11-29T09:33:05.065Z,7.60
2022-11-29T09:35:33.533Z,7.64
2022-11-29T09:38:00.256Z,7.70
2022-11-29T09:40:37.753Z,7.70
2022-11-29T09:43:41.020Z,7.70
2022-11-29T09:46:58.998Z,7.70
2022-11-29T09:49:43.765Z,7.72
2022-11-29T09:52:33.588Z,7.80
2022-11-29T09:55:25.144Z,7.80
2022-11-29T09:57:54.997Z,7.70
2022-11-29T10:00:21.602Z,7.50
2022-11-29T10:02:56.926Z,7.50
2022-11-29T10:05:44.193Z,7.56
2022-11-29T10:08:23.319Z,7.50
2022-11-29T10:10:55.732Z,7.50
2022-11-29T10:13:34.368Z,7.50
2022-11-29T10:16:23.072Z,7.56
2022-11-29T10:19:24.575Z,7.60
2022-11-29T10:22:02.919Z,7.60
2022-11-29T10:24:32.039Z,7.70
2022-11-29T10:26:58.743Z,7.80
2022-11-29T10:29:25.901Z,7.80
2022-11-29T10:31:56.816Z,7.90
2022-11-29T10:34:26.779Z,7.90
2022-11-29T10:36:59.824Z,7.90
2022-11-29T10:39:57.479Z,8.00
2022-11-29T10:42:47.050Z,8.00
2022-11-29T10:45:30.849Z,8.10
2022-11-29T10:48:16.970Z,8.10
2022-11-29T10:50:48.714Z,8.10
2022-11-29T10:53:25.382Z,8.20
2022-11-29T10:56:06.506Z,8.20
2022-11-29T10:58:33.172Z,8.20
2022-11-29T11:01:07.179Z,8.30
2022-11-29T11:03:35.651Z,8.30
2022-11-29T11:06:18.702Z,8.24
2022-11-29T11:08:54.028Z,8.20
2022-11-29T11:11:31.741Z,8.26
2022-11-29T11:14:03.426Z,8.30
2022-11-29T11:16:34.295Z,8.30
2022-11-29T11:19:31.369Z,8.30
2022-11-29T11:22:01.395Z,8.40
2022-11-29T11:24:36.233Z,8.40
2022-11-29T11:27:03.644Z,8.50
2022-11-29T11:29:41.618Z,8.50
2022-11-29T11:32:19.557Z,8.50
2022-11-29T11:34:57.212Z,8.50
2022-11-29T11:37:29.276Z,8.60
2022-11-29T11:40:20.573Z,8.60
2022-11-29T11:42:47.252Z,8.40
2022-11-29T11:45:13.841Z,8.40
2022-11-29T11:47:46.709Z,8.40
2022-11-29T11:50:34.334Z,8.50
2022-11-29T11:53:06.692Z,8.60
2022-11-29T11:55:35.000Z,8.60
2022-11-29T11:58:13.469Z,8.60
2022-11-29T12:01:05.845Z,8.50
2022-11-29T12:03:53.046Z,8.50
2022-11-29T12:06:41.595Z,8.50
2022-11-29T12:09:08.464Z,8.60
2022-11-29T12:12:03.864Z,8.60
2022-11-29T12:14:45.593Z,8.60
2022-11-29T12:17:38.662Z,8.68
2022-11-29T12:20:31.156Z,8.70
2022-11-29T12:23:13.155Z,8.70
2022-11-29T12:25:53.830Z,8.72
2022-11-29T12:28:22.714Z,8.80
2022-11-29T12:31:20.103Z,8.80
2022-11-29T12:34:10.879Z,8.80
2022-11-29T12:37:04.825Z,8.80
2022-11-29T12:40:01.802Z,8.80
2022-11-29T12:42:40.739Z,8.80
2022-11-29T12:45:40.576Z,8.80
2022-11-29T12:48:27.078Z,8.86
2022-11-29T12:51:23.680Z,8.82
2022-11-29T12:54:20.045Z,8.80
2022-11-29T12:57:28.603Z,8.80
2022-11-29T13:00:01.189Z,8.80
2022-11-29T13:03:02.677Z,8.80
2022-11-29T13:06:08.063Z,8.70
2022-11-29T13:09:24.262Z,8.60
2022-11-29T13:12:05.111Z,8.50
2022-11-29T13:14:45.491Z,8.40
2022-11-29T13:17:47.019Z,8.40
2022-11-29T13:20:25.820Z,8.40
2022-11-29T13:23:16.284Z,8.30
2022-11-29T13:25:47.667Z,8.30
2022-11-29T13:28:26.612Z,8.30
2022-11-29T13:31:03.442Z,8.30
2022-11-29T13:33:52.202Z,8.30
2022-11-29T13:36:24.951Z,8.30
2022-11-29T13:39:14.439Z,8.30
2022-11-29T13:41:54.725Z,8.30
2022-11-29T13:44:39.486Z,8.24
2022-11-29T13:47:12.776Z,8.20
2022-11-29T13:50:02.564Z,8.20
2022-11-29T13:52:43.378Z,8.30
2022-11-29T13:55:12.675Z,8.30
2022-11-29T13:58:16.871Z,8.30
2022-11-29T14:00:44.591Z,8.38
2022-11-29T14:03:20.970Z,8.40
2022-11-29T14:05:51.950Z,8.30
2022-11-29T14:11:42.470Z,8.20
2022-11-29T14:14:20.311Z,8.10
2022-11-29T14:16:52.465Z,8.10
2022-11-29T14:19:21.100Z,8.00
2022-11-29T14:22:03.132Z,8.00
2022-11-29T14:24:32.798Z,7.98
2022-11-29T14:27:14.428Z,7.90
2022-11-29T14:29:50.239Z,7.90
2022-11-29T14:32:42.807Z,7.80
2022-11-29T14:35:12.538Z,7.80
2022-11-29T14:38:19.391Z,7.80
2022-11-29T14:40:59.953Z,7.80
2022-11-29T14:43:33.513Z,7.80
2022-11-29T14:46:31.078Z,7.80
2022-11-29T14:49:03.798Z,7.70
2022-11-29T14:51:34.050Z,7.70
2022-11-29T14:54:13.204Z,7.62
2022-11-29T14:56:44.482Z,7.62
2022-11-29T14:59:47.149Z,7.60
2022-11-29T15:02:19.914Z,7.50
2022-11-29T15:04:50.997Z,7.50
2022-11-29T15:07:29.349Z,7.56
2022-11-29T15:10:04.431Z,7.50
2022-11-29T15:12:36.226Z,7.50
2022-11-29T15:15:21.774Z,7.44
2022-11-29T15:17:48.363Z,7.40
2022-11-29T15:20:28.036Z,7.40
2022-11-29T15:22:59.579Z,7.30
2022-11-29T15:25:31.233Z,7.30
2022-11-29T15:28:05.764Z,7.30
2022-11-29T15:30:42.325Z,7.30
2022-11-29T15:33:22.393Z,7.20
2022-11-29T15:35:53.266Z,7.20
2022-11-29T15:38:22.590Z,7.20
2022-11-29T15:40:55.271Z,7.20
2022-11-29T15:43:30.622Z,7.20
2022-11-29T15:45:58.957Z,7.10
2022-11-29T15:48:31.499Z,7.10
2022-11-29T15:51:23.258Z,7.10
2022-11-29T15:54:10.158Z,7.10
2022-11-29T15:56:48.945Z,7.10
2022-11-29T15:59:38.370Z,7.10
2022-11-29T16:02:32.515Z,7.00
2022-11-29T16:05:35.702Z,7.06
2022-11-29T16:08:17.809Z,7.10
2022-11-29T16:10:49.433Z,7.10
2022-11-29T16:13:25.425Z,7.10
2022-11-29T16:16:06.256Z,7.00
2022-11-29T16:18:33.857Z,6.90
2022-11-29T16:21:04.272Z,6.98
2022-11-29T16:23:41.209Z,7.00
2022-11-29T16:26:15.583Z,6.90
2022-11-29T16:28:46.554Z,6.90
2022-11-29T16:31:18.946Z,6.80
2022-11-29T16:33:47.582Z,6.80
2022-11-29T16:36:24.415Z,6.80
2022-11-29T16:39:06.392Z,6.70
2022-11-29T16:41:37.260Z,6.70
2022-11-29T16:44:07.316Z,6.70
2022-11-29T16:46:40.021Z,6.70
2022-11-29T16:49:34.837Z,6.60
2022-11-29T16:52:04.302Z,6.60
2022-11-29T16:54:35.465Z,6.50
2022-11-29T16:57:05.659Z,6.48
2022-11-29T16:59:32.809Z,6.40
2022-11-29T17:01:59.553Z,6.40
2022-11-29T17:04:26.596Z,6.40
2022-11-29T17:06:55.389Z,6.40
2022-11-29T17:09:31.288Z,6.40
2022-11-29T17:12:01.877Z,6.34
2022-11-29T17:14:29.607Z,6.32
2022-11-29T17:16:56.441Z,6.30
2022-11-29T17:19:24.144Z,6.30
2022-11-29T17:21:52.855Z,6.30
2022-11-29T17:24:22.671Z,6.30
2022-11-29T17:26:50.423Z,6.30
2022-11-29T17:29:18.294Z,6.30
2022-11-29T17:31:46.532Z,6.30
2022-11-29T17:34:13.271Z,6.30
2022-11-29T17:36:40.927Z,6.30
2022-11-29T17:39:08.314Z,6.30
2022-11-29T17:41:35.173Z,6.26
2022-11-29T17:44:02.202Z,6.24
2022-11-29T17:46:32.502Z,6.30
2022-11-29T17:49:02.083Z,6.30
2022-11-29T17:51:51.187Z,6.30
2022-11-29T17:54:16.305Z,6.30
2022-11-29T17:56:43.059Z,6.30
2022-11-29T17:59:09.682Z,6.30
2022-11-29T18:01:36.831Z,6.30
2022-11-29T18:04:05.819Z,6.20
2022-11-29T18:06:40.748Z,6.20
2022-11-29T18:09:10.660Z,6.22
2022-11-29T18:11:47.664Z,6.22
2022-11-29T18:14:23.844Z,6.24
2022-11-29T18:16:51.659Z,6.20
2022-11-29T18:19:21.605Z,6.20
2022-11-29T18:21:49.661Z,6.20
2022-11-29T18:24:16.724Z,6.20
2022-11-29T18:26:43.843Z,6.20
2022-11-29T18:29:10.792Z,6.20
2022-11-29T18:31:41.104Z,6.20
2022-11-29T18:34:10.899Z,6.20
2022-11-29T18:36:48.856Z,6.20
2022-11-29T18:39:19.032Z,6.20
2022-11-29T18:41:48.944Z,6.20
2022-11-29T18:44:18.889Z,6.30
2022-11-29T18:46:46.143Z,6.30
2022-11-29T18:49:16.044Z,6.20
2022-11-29T18:51:44.972Z,6.20
2022-11-29T18:54:12.914Z,6.10
2022-11-29T18:56:39.800Z,6.10
2022-11-29T18:59:16.763Z,6.10
2022-11-29T19:01:45.868Z,6.10
2022-11-29T19:04:16.814Z,6.18
2022-11-29T19:06:44.127Z,6.16
2022-11-29T19:09:23.782Z,6.20
2022-11-29T19:11:51.076Z,6.20
2022-11-29T19:14:18.677Z,6.20
2022-11-29T19:16:47.655Z,6.20
2022-11-29T19:19:14.337Z,6.20
2022-11-29T19:21:42.139Z,6.28
2022-11-29T19:24:14.900Z,6.30
2022-11-29T19:26:44.939Z,6.30
2022-11-29T19:29:13.690Z,6.30
2022-11-29T19:31:40.898Z,6.30
2022-11-29T19:34:07.673Z,6.30
2022-11-29T19:36:34.526Z,6.32
2022-11-29T19:39:02.811Z,6.40
2022-11-29T19:41:32.716Z,6.40
2022-11-29T19:44:04.395Z,6.30
2022-11-29T19:46:35.396Z,6.30
2022-11-29T19:49:05.030Z,6.30
2022-11-29T19:51:32.727Z,6.22
2022-11-29T19:54:02.739Z,6.20
2022-11-29T19:56:30.929Z,6.20
2022-11-29T19:58:59.918Z,6.20
2022-11-29T20:01:37.802Z,6.20
2022-11-29T20:04:07.394Z,6.28
2022-11-29T20:06:34.160Z,6.30
2022-11-29T20:09:00.842Z,6.30
2022-11-29T20:11:27.593Z,6.30
2022-11-29T20:13:59.647Z,6.20
2022-11-29T20:16:27.969Z,6.20
2022-11-29T20:18:55.694Z,6.20
2022-11-29T20:21:27.025Z,6.20
2022-11-29T20:24:05.793Z,6.20
2022-11-29T20:26:35.466Z,6.20
2022-11-29T20:29:02.772Z,6.20
2022-11-29T20:31:32.265Z,6.20
2022-11-29T20:33:59.235Z,6.20
2022-11-29T20:37:00.854Z,6.20
2022-11-29T20:39:45.648Z,6.20
2022-11-29T20:42:56.683Z,6.20
2022-11-29T20:45:24.795Z,6.20
2022-11-29T20:48:19.563Z,6.12
2022-11-29T20:50:56.889Z,6.10
2022-11-29T20:53:44.557Z,6.10
2022-11-29T20:56:12.174Z,6.02
2022-11-29T20:58:39.168Z,6.10
2022-11-29T21:01:07.339Z,6.02
2022-11-29T21:03:34.036Z,6.00
2022-11-29T21:06:04.101Z,6.00
2022-11-29T21:08:31.697Z,6.06
2022-11-29T21:11:08.114Z,6.00
2022-11-29T21:13:35.457Z,6.02
2022-11-29T21:16:03.391Z,6.00
2022-11-29T21:18:31.906Z,5.90
2022-11-29T21:22:02.238Z,5.90
2022-11-29T21:24:49.897Z,5.90
2022-11-29T21:27:29.189Z,5.90
2022-11-29T21:29:56.268Z,5.82
2022-11-29T21:32:25.457Z,5.80
2022-11-29T21:34:52.862Z,5.80
2022-11-29T21:37:23.018Z,5.80
2022-11-29T21:39:51.532Z,5.74
2022-11-29T21:42:18.643Z,5.70
2022-11-29T21:44:45.598Z,5.70
2022-11-29T21:47:12.753Z,5.60
2022-11-29T21:49:40.033Z,5.60
2022-11-29T21:52:06.996Z,5.62
2022-11-29T21:54:33.762Z,5.60
2022-11-29T21:57:01.813Z,5.60
2022-11-29T21:59:29.087Z,5.56
2022-11-29T22:01:55.831Z,5.50
2022-11-29T22:04:22.852Z,5.50
2022-11-29T22:06:49.558Z,5.50
2022-11-29T22:09:16.491Z,5.50
2022-11-29T22:11:43.251Z,5.50
2022-11-29T22:14:18.893Z,5.50
2022-11-29T22:16:53.550Z,5.50
2022-11-29T22:19:30.015Z,5.46
2022-11-29T22:22:02.936Z,5.40
2022-11-29T22:24:33.527Z,5.30
2022-11-29T22:27:00.421Z,5.30
2022-11-29T22:29:27.356Z,5.30
2022-11-29T22:31:56.259Z,5.30
2022-11-29T22:34:26.867Z,5.30
2022-11-29T22:36:53.899Z,5.30
2022-11-29T22:39:22.729Z,5.30
2022-11-29T22:41:53.935Z,5.30
2022-11-29T22:44:23.039Z,5.40
2022-11-29T22:46:50.070Z,5.40
2022-11-29T22:49:16.733Z,5.40
2022-11-29T22:51:43.992Z,5.32
2022-11-29T22:54:11.765Z,5.30
2022-11-29T22:56:41.386Z,5.30
2022-11-29T22:59:08.393Z,5.30
2022-11-29T23:01:38.780Z,5.28
2022-11-29T23:04:10.977Z,5.20
2022-11-29T23:06:43.959Z,5.10
2022-11-29T23:09:18.979Z,5.10
2022-11-29T23:11:46.450Z,5.06
2022-11-29T23:14:13.571Z,5.00
2022-11-29T23:16:40.973Z,5.00
2022-11-29T23:19:07.691Z,5.00
2022-11-29T23:21:38.313Z,5.00
2022-11-29T23:24:05.726Z,5.00
2022-11-29T23:26:40.112Z,5.00
2022-11-29T23:29:11.108Z,5.00
2022-11-29T23:31:38.719Z,4.96
2022-11-29T23:34:05.795Z,4.90
2022-11-29T23:36:33.062Z,4.80
2022-11-29T23:39:00.429Z,4.80
2022-11-29T23:41:27.104Z,4.80
2022-11-29T23:43:53.830Z,4.70
2022-11-29T23:46:24.125Z,4.70
2022-11-29T23:48:52.281Z,4.60
2022-11-29T23:51:20.019Z,4.60
2022-11-29T23:53:52.419Z,4.52
2022-11-29T23:56:20.228Z,4.50
2022-11-29T23:58:47.161Z,4.44
